sensor_id;sensor_type;location;lat;lon;timestamp;pressure;altitude;pressure_sealevel;temperature;humidity
28267;BME280;15525;45.568;5.448;2022-09-12T00:01:55;97969.53;;;20.47;50.99
28267;BME280;15525;45.568;5.448;2022-09-12T00:04:21;97965.44;;;20.41;51.35
28267;BME280;15525;45.568;5.448;2022-09-12T00:06:46;97963.63;;;20.45;50.93
28267;BME280;15525;45.568;5.448;2022-09-12T00:09:13;97957.84;;;20.46;50.67
28267;BME280;15525;45.568;5.448;2022-09-12T00:11:41;97974.38;;;20.41;51.18
28267;BME280;15525;45.568;5.448;2022-09-12T00:14:08;97967.03;;;20.42;50.79
28267;BME280;15525;45.568;5.448;2022-09-12T00:16:35;97971.59;;;20.50;50.66
28267;BME280;15525;45.568;5.448;2022-09-12T00:19:02;97959.41;;;20.35;50.77
28267;BME280;15525;45.568;5.448;2022-09-12T00:21:28;97970.09;;;20.20;51.32
28267;BME280;15525;45.568;5.448;2022-09-12T00:23:54;97953.75;;;19.99;51.59
28267;BME280;15525;45.568;5.448;2022-09-12T00:26:20;97960.22;;;19.66;52.66
28267;BME280;15525;45.568;5.448;2022-09-12T00:28:47;97962.63;;;19.88;52.10
28267;BME280;15525;45.568;5.448;2022-09-12T00:31:15;97977.06;;;20.09;51.43
28267;BME280;15525;45.568;5.448;2022-09-12T00:33:41;97964.78;;;20.23;50.89
28267;BME280;15525;45.568;5.448;2022-09-12T00:36:15;97963.69;;;20.36;50.91
28267;BME280;15525;45.568;5.448;2022-09-12T00:38:41;97964.38;;;20.33;50.67
28267;BME280;15525;45.568;5.448;2022-09-12T00:41:15;97961.41;;;20.26;51.26
28267;BME280;15525;45.568;5.448;2022-09-12T00:43:43;97964.53;;;20.16;51.24
28267;BME280;15525;45.568;5.448;2022-09-12T00:46:18;97950.66;;;20.09;51.46
28267;BME280;15525;45.568;5.448;2022-09-12T00:48:52;97954.25;;;20.01;51.29
28267;BME280;15525;45.568;5.448;2022-09-12T00:51:20;97950.31;;;19.90;51.24
28267;BME280;15525;45.568;5.448;2022-09-12T00:53:48;97956.16;;;19.80;52.00
28267;BME280;15525;45.568;5.448;2022-09-12T00:56:16;97953.59;;;19.55;52.29
28267;BME280;15525;45.568;5.448;2022-09-12T00:59:07;97955.91;;;19.44;53.26
28267;BME280;15525;45.568;5.448;2022-09-12T01:01:36;97959.59;;;19.40;52.81
28267;BME280;15525;45.568;5.448;2022-09-12T01:04:03;97954.66;;;19.62;52.21
28267;BME280;15525;45.568;5.448;2022-09-12T01:06:36;97940.50;;;19.77;51.90
28267;BME280;15525;45.568;5.448;2022-09-12T01:09:04;97951.16;;;19.82;51.64
28267;BME280;15525;45.568;5.448;2022-09-12T01:11:37;97942.75;;;19.75;52.22
28267;BME280;15525;45.568;5.448;2022-09-12T01:14:05;97934.53;;;19.63;52.04
28267;BME280;15525;45.568;5.448;2022-09-12T01:16:34;97921.63;;;19.60;52.19
28267;BME280;15525;45.568;5.448;2022-09-12T01:24:20;97930.84;;;19.68;51.89
28267;BME280;15525;45.568;5.448;2022-09-12T01:35:04;97933.41;;;19.44;53.40
28267;BME280;15525;45.568;5.448;2022-09-12T01:37:53;97919.66;;;19.11;53.17
28267;BME280;15525;45.568;5.448;2022-09-12T01:40:44;97920.22;;;19.25;53.21
28267;BME280;15525;45.568;5.448;2022-09-12T01:49:01;97917.88;;;19.44;52.62
28267;BME280;15525;45.568;5.448;2022-09-12T01:51:38;97912.25;;;19.49;51.91
28267;BME280;15525;45.568;5.448;2022-09-12T01:54:09;97903.38;;;19.40;52.28
28267;BME280;15525;45.568;5.448;2022-09-12T01:56:38;97895.09;;;19.37;52.25
28267;BME280;15525;45.568;5.448;2022-09-12T02:01:38;97899.63;;;19.53;52.22
28267;BME280;15525;45.568;5.448;2022-09-12T02:04:19;97898.13;;;19.64;52.26
28267;BME280;15525;45.568;5.448;2022-09-12T02:07:07;97905.78;;;19.62;51.92
28267;BME280;15525;45.568;5.448;2022-09-12T02:10:17;97895.03;;;19.45;52.46
28267;BME280;15525;45.568;5.448;2022-09-12T02:12:49;97898.56;;;19.17;53.06
28267;BME280;15525;45.568;5.448;2022-09-12T02:15:18;97904.94;;;19.12;53.13
28267;BME280;15525;45.568;5.448;2022-09-12T02:17:48;97894.22;;;19.16;52.91
28267;BME280;15525;45.568;5.448;2022-09-12T02:22:47;97899.31;;;19.26;52.17
28267;BME280;15525;45.568;5.448;2022-09-12T02:25:16;97908.13;;;19.23;52.61
28267;BME280;15525;45.568;5.448;2022-09-12T02:27:44;97904.91;;;19.21;52.80
28267;BME280;15525;45.568;5.448;2022-09-12T02:30:11;97904.94;;;19.12;52.80
28267;BME280;15525;45.568;5.448;2022-09-12T02:38:12;97891.34;;;19.21;52.83
28267;BME280;15525;45.568;5.448;2022-09-12T02:40:40;97887.03;;;19.20;52.70
28267;BME280;15525;45.568;5.448;2022-09-12T02:43:06;97889.72;;;19.28;52.49
28267;BME280;15525;45.568;5.448;2022-09-12T02:45:32;97891.19;;;19.17;52.84
28267;BME280;15525;45.568;5.448;2022-09-12T02:50:29;97896.16;;;19.15;52.78
28267;BME280;15525;45.568;5.448;2022-09-12T02:52:55;97900.31;;;19.13;52.88
28267;BME280;15525;45.568;5.448;2022-09-12T02:55:28;97885.44;;;19.19;52.44
28267;BME280;15525;45.568;5.448;2022-09-12T02:57:55;97885.13;;;19.20;52.53
28267;BME280;15525;45.568;5.448;2022-09-12T03:00:21;97881.91;;;19.18;52.57
28267;BME280;15525;45.568;5.448;2022-09-12T03:05:33;97894.22;;;19.24;52.54
28267;BME280;15525;45.568;5.448;2022-09-12T03:08:19;97893.72;;;19.31;52.77
28267;BME280;15525;45.568;5.448;2022-09-12T03:11:17;97899.97;;;18.85;53.67
28267;BME280;15525;45.568;5.448;2022-09-12T03:13:50;97899.81;;;18.82;53.56
28267;BME280;15525;45.568;5.448;2022-09-12T03:24:17;97883.72;;;19.14;52.92
28267;BME280;15525;45.568;5.448;2022-09-12T03:29:18;97888.03;;;19.15;52.78
28267;BME280;15525;45.568;5.448;2022-09-12T03:31:52;97890.06;;;19.18;52.87
28267;BME280;15525;45.568;5.448;2022-09-12T03:34:20;97904.75;;;19.17;52.69
28267;BME280;15525;45.568;5.448;2022-09-12T03:36:46;97900.50;;;19.08;52.99
28267;BME280;15525;45.568;5.448;2022-09-12T03:39:12;97894.16;;;19.04;53.32
28267;BME280;15525;45.568;5.448;2022-09-12T03:41:37;97903.22;;;19.08;52.88
28267;BME280;15525;45.568;5.448;2022-09-12T03:44:03;97871.50;;;19.00;52.67
28267;BME280;15525;45.568;5.448;2022-09-12T03:46:28;97881.84;;;19.06;52.62
28267;BME280;15525;45.568;5.448;2022-09-12T03:48:54;97902.16;;;19.00;52.71
28267;BME280;15525;45.568;5.448;2022-09-12T03:51:19;97899.06;;;19.10;52.97
28267;BME280;15525;45.568;5.448;2022-09-12T03:53:45;97888.22;;;19.10;52.64
28267;BME280;15525;45.568;5.448;2022-09-12T03:56:11;97901.59;;;19.15;52.46
28267;BME280;15525;45.568;5.448;2022-09-12T03:58:36;97887.91;;;19.03;52.69
28267;BME280;15525;45.568;5.448;2022-09-12T04:01:28;97893.13;;;19.17;52.87
28267;BME280;15525;45.568;5.448;2022-09-12T04:03:53;97876.13;;;18.99;52.42
28267;BME280;15525;45.568;5.448;2022-09-12T04:06:21;97893.53;;;18.98;52.61
28267;BME280;15525;45.568;5.448;2022-09-12T04:08:50;97899.88;;;18.65;53.33
28267;BME280;15525;45.568;5.448;2022-09-12T04:11:17;97900.28;;;18.46;54.14
28267;BME280;15525;45.568;5.448;2022-09-12T04:13:44;97907.09;;;18.52;53.92
28267;BME280;15525;45.568;5.448;2022-09-12T04:16:11;97901.63;;;18.69;53.79
28267;BME280;15525;45.568;5.448;2022-09-12T04:18:37;97897.13;;;18.82;53.35
28267;BME280;15525;45.568;5.448;2022-09-12T04:21:07;97908.25;;;18.89;52.93
28267;BME280;15525;45.568;5.448;2022-09-12T04:23:33;97892.91;;;18.93;52.87
28267;BME280;15525;45.568;5.448;2022-09-12T04:26:01;97892.78;;;18.89;52.87
28267;BME280;15525;45.568;5.448;2022-09-12T04:28:27;97909.28;;;18.76;53.23
28267;BME280;15525;45.568;5.448;2022-09-12T04:30:53;97891.28;;;18.63;53.43
28267;BME280;15525;45.568;5.448;2022-09-12T04:33:19;97914.53;;;18.72;53.23
28267;BME280;15525;45.568;5.448;2022-09-12T04:35:46;97904.50;;;18.73;53.25
28267;BME280;15525;45.568;5.448;2022-09-12T04:38:11;97908.59;;;18.79;53.00
28267;BME280;15525;45.568;5.448;2022-09-12T04:40:37;97901.63;;;18.69;53.06
28267;BME280;15525;45.568;5.448;2022-09-12T04:43:03;97916.81;;;18.53;53.53
28267;BME280;15525;45.568;5.448;2022-09-12T04:45:28;97903.78;;;18.38;53.65
28267;BME280;15525;45.568;5.448;2022-09-12T04:47:54;97907.28;;;18.47;53.68
28267;BME280;15525;45.568;5.448;2022-09-12T04:50:19;97890.69;;;18.40;53.54
28267;BME280;15525;45.568;5.448;2022-09-12T04:52:49;97911.84;;;18.64;53.77
28267;BME280;15525;45.568;5.448;2022-09-12T04:55:15;97903.91;;;18.59;53.26
28267;BME280;15525;45.568;5.448;2022-09-12T04:57:40;97914.25;;;18.65;53.23
28267;BME280;15525;45.568;5.448;2022-09-12T05:00:06;97897.03;;;18.61;53.13
28267;BME280;15525;45.568;5.448;2022-09-12T05:02:33;97904.03;;;18.62;53.37
28267;BME280;15525;45.568;5.448;2022-09-12T05:04:58;97900.06;;;18.60;53.48
28267;BME280;15525;45.568;5.448;2022-09-12T05:07:24;97910.59;;;18.61;53.33
28267;BME280;15525;45.568;5.448;2022-09-12T05:09:49;97896.72;;;18.54;53.34
28267;BME280;15525;45.568;5.448;2022-09-12T05:12:14;97902.31;;;18.49;53.63
28267;BME280;15525;45.568;5.448;2022-09-12T05:14:40;97898.69;;;18.28;54.17
28267;BME280;15525;45.568;5.448;2022-09-12T05:17:06;97893.59;;;18.35;54.01
28267;BME280;15525;45.568;5.448;2022-09-12T05:19:31;97885.28;;;18.40;53.90
28267;BME280;15525;45.568;5.448;2022-09-12T05:21:57;97887.31;;;18.52;53.83
28267;BME280;15525;45.568;5.448;2022-09-12T05:24:23;97887.19;;;18.48;53.93
28267;BME280;15525;45.568;5.448;2022-09-12T05:29:24;97880.63;;;18.49;53.67
28267;BME280;15525;45.568;5.448;2022-09-12T05:31:50;97892.25;;;18.67;53.47
28267;BME280;15525;45.568;5.448;2022-09-12T05:34:18;97891.91;;;18.68;53.51
28267;BME280;15525;45.568;5.448;2022-09-12T05:36:45;97888.84;;;18.70;53.44
28267;BME280;15525;45.568;5.448;2022-09-12T05:39:10;97889.16;;;18.77;53.14
28267;BME280;15525;45.568;5.448;2022-09-12T05:41:36;97876.09;;;18.70;53.43
28267;BME280;15525;45.568;5.448;2022-09-12T05:44:04;97884.69;;;18.81;53.34
28267;BME280;15525;45.568;5.448;2022-09-12T05:46:34;97881.78;;;18.86;53.27
28267;BME280;15525;45.568;5.448;2022-09-12T05:49:04;97871.72;;;18.86;53.51
28267;BME280;15525;45.568;5.448;2022-09-12T05:51:33;97871.25;;;18.84;53.47
28267;BME280;15525;45.568;5.448;2022-09-12T05:54:02;97877.75;;;18.92;53.52
28267;BME280;15525;45.568;5.448;2022-09-12T05:56:30;97879.97;;;18.98;53.49
28267;BME280;15525;45.568;5.448;2022-09-12T05:59:17;97887.69;;;19.17;53.64
28267;BME280;15525;45.568;5.448;2022-09-12T06:01:43;97894.22;;;19.24;52.92
28267;BME280;15525;45.568;5.448;2022-09-12T06:04:10;97893.53;;;19.27;52.76
28267;BME280;15525;45.568;5.448;2022-09-12T06:06:41;97875.03;;;19.29;52.83
28267;BME280;15525;45.568;5.448;2022-09-12T06:09:09;97897.09;;;19.48;52.47
28267;BME280;15525;45.568;5.448;2022-09-12T06:11:35;97894.47;;;19.60;52.69
28267;BME280;15525;45.568;5.448;2022-09-12T06:14:01;97884.88;;;19.63;52.64
28267;BME280;15525;45.568;5.448;2022-09-12T06:16:29;97891.75;;;19.81;52.62
28267;BME280;15525;45.568;5.448;2022-09-12T06:19:00;97894.25;;;19.86;52.59
28267;BME280;15525;45.568;5.448;2022-09-12T06:21:26;97893.72;;;19.92;52.25
28267;BME280;15525;45.568;5.448;2022-09-12T06:23:53;97895.56;;;20.00;52.50
28267;BME280;15525;45.568;5.448;2022-09-12T06:26:19;97902.66;;;20.13;52.16
28267;BME280;15525;45.568;5.448;2022-09-12T06:28:48;97900.00;;;20.25;52.10
28267;BME280;15525;45.568;5.448;2022-09-12T06:31:16;97892.56;;;20.34;51.70
28267;BME280;15525;45.568;5.448;2022-09-12T06:33:44;97895.09;;;20.51;51.42
28267;BME280;15525;45.568;5.448;2022-09-12T06:36:37;97909.88;;;20.74;51.62
28267;BME280;15525;45.568;5.448;2022-09-12T06:39:10;97907.72;;;20.80;51.19
28267;BME280;15525;45.568;5.448;2022-09-12T06:41:36;97906.97;;;20.92;50.93
28267;BME280;15525;45.568;5.448;2022-09-12T06:44:02;97914.69;;;21.02;50.77
28267;BME280;15525;45.568;5.448;2022-09-12T06:46:28;97916.28;;;21.15;50.58
28267;BME280;15525;45.568;5.448;2022-09-12T06:48:56;97917.09;;;21.27;50.48
28267;BME280;15525;45.568;5.448;2022-09-12T06:51:22;97914.25;;;21.48;49.97
28267;BME280;15525;45.568;5.448;2022-09-12T06:53:48;97920.34;;;21.57;49.61
28267;BME280;15525;45.568;5.448;2022-09-12T06:56:16;97914.56;;;21.70;49.46
28267;BME280;15525;45.568;5.448;2022-09-12T06:58:44;97913.06;;;21.85;49.28
28267;BME280;15525;45.568;5.448;2022-09-12T07:01:12;97900.78;;;21.91;49.07
28267;BME280;15525;45.568;5.448;2022-09-12T07:03:38;97897.75;;;22.08;48.76
28267;BME280;15525;45.568;5.448;2022-09-12T07:06:15;97899.66;;;22.19;48.60
28267;BME280;15525;45.568;5.448;2022-09-12T07:08:41;97899.91;;;22.30;48.58
28267;BME280;15525;45.568;5.448;2022-09-12T07:11:18;97911.03;;;22.37;48.57
28267;BME280;15525;45.568;5.448;2022-09-12T07:13:46;97901.81;;;22.41;48.54
28267;BME280;15525;45.568;5.448;2022-09-12T07:16:12;97881.13;;;22.40;48.34
28267;BME280;15525;45.568;5.448;2022-09-12T07:18:38;97901.34;;;22.67;48.19
28267;BME280;15525;45.568;5.448;2022-09-12T07:21:06;97897.03;;;22.66;47.86
28267;BME280;15525;45.568;5.448;2022-09-12T07:23:32;97904.44;;;22.81;47.88
28267;BME280;15525;45.568;5.448;2022-09-12T07:25:59;97909.03;;;22.92;47.55
28267;BME280;15525;45.568;5.448;2022-09-12T07:28:27;97898.72;;;23.01;47.41
28267;BME280;15525;45.568;5.448;2022-09-12T07:30:53;97903.94;;;23.22;47.20
28267;BME280;15525;45.568;5.448;2022-09-12T07:33:20;97902.25;;;23.33;47.00
28267;BME280;15525;45.568;5.448;2022-09-12T07:35:46;97892.63;;;23.39;46.80
28267;BME280;15525;45.568;5.448;2022-09-12T07:38:12;97898.81;;;23.70;46.53
28267;BME280;15525;45.568;5.448;2022-09-12T07:40:37;97890.19;;;23.87;46.26
28267;BME280;15525;45.568;5.448;2022-09-12T07:43:03;97898.81;;;24.05;45.99
28267;BME280;15525;45.568;5.448;2022-09-12T07:45:28;97878.84;;;24.04;45.48
28267;BME280;15525;45.568;5.448;2022-09-12T07:47:54;97895.16;;;24.39;44.83
28267;BME280;15525;45.568;5.448;2022-09-12T07:50:19;97902.06;;;24.52;44.62
28267;BME280;15525;45.568;5.448;2022-09-12T07:52:45;97892.56;;;24.65;44.38
28267;BME280;15525;45.568;5.448;2022-09-12T07:55:10;97897.75;;;24.70;44.40
28267;BME280;15525;45.568;5.448;2022-09-12T07:57:36;97898.41;;;24.63;44.48
28267;BME280;15525;45.568;5.448;2022-09-12T08:00:03;97896.13;;;24.65;44.63
28267;BME280;15525;45.568;5.448;2022-09-12T08:02:28;97907.97;;;24.95;44.18
28267;BME280;15525;45.568;5.448;2022-09-12T08:04:54;97905.78;;;25.04;43.58
28267;BME280;15525;45.568;5.448;2022-09-12T08:07:19;97898.59;;;25.19;43.51
28267;BME280;15525;45.568;5.448;2022-09-12T08:09:45;97903.16;;;25.34;42.90
28267;BME280;15525;45.568;5.448;2022-09-12T08:12:10;97887.06;;;25.32;42.84
28267;BME280;15525;45.568;5.448;2022-09-12T08:14:36;97898.41;;;25.08;43.51
28267;BME280;15525;45.568;5.448;2022-09-12T08:17:01;97905.09;;;25.11;43.21
28267;BME280;15525;45.568;5.448;2022-09-12T08:19:27;97901.94;;;25.09;43.29
28267;BME280;15525;45.568;5.448;2022-09-12T08:21:52;97896.97;;;25.18;42.92
28267;BME280;15525;45.568;5.448;2022-09-12T08:24:17;97915.06;;;25.45;42.55
28267;BME280;15525;45.568;5.448;2022-09-12T08:26:43;97921.59;;;25.63;42.24
28267;BME280;15525;45.568;5.448;2022-09-12T08:29:08;97917.66;;;25.90;41.64
28267;BME280;15525;45.568;5.448;2022-09-12T08:31:33;97911.56;;;26.00;41.50
28267;BME280;15525;45.568;5.448;2022-09-12T08:34:02;97914.41;;;26.07;41.43
28267;BME280;15525;45.568;5.448;2022-09-12T08:36:28;97911.94;;;26.28;40.66
28267;BME280;15525;45.568;5.448;2022-09-12T08:39:04;97919.34;;;26.57;39.70
28267;BME280;15525;45.568;5.448;2022-09-12T08:41:32;97912.50;;;26.44;40.59
28267;BME280;15525;45.568;5.448;2022-09-12T08:47:10;97912.13;;;26.82;40.15
28267;BME280;15525;45.568;5.448;2022-09-12T08:49:53;97911.94;;;27.01;39.81
28267;BME280;15525;45.568;5.448;2022-09-12T08:52:26;97903.38;;;27.09;39.74
28267;BME280;15525;45.568;5.448;2022-09-12T08:54:52;97895.97;;;27.17;39.81
28267;BME280;15525;45.568;5.448;2022-09-12T08:57:21;97909.22;;;27.48;39.41
28267;BME280;15525;45.568;5.448;2022-09-12T08:59:47;97908.84;;;27.56;39.20
28267;BME280;15525;45.568;5.448;2022-09-12T09:13:32;97904.66;;;28.48;38.34
28267;BME280;15525;45.568;5.448;2022-09-12T09:16:30;97913.38;;;28.78;37.28
28267;BME280;15525;45.568;5.448;2022-09-12T09:19:01;97907.09;;;28.85;38.06
28267;BME280;15525;45.568;5.448;2022-09-12T09:21:58;97901.97;;;28.76;37.35
28267;BME280;15525;45.568;5.448;2022-09-12T09:24:30;97902.72;;;28.66;37.34
28267;BME280;15525;45.568;5.448;2022-09-12T09:27:02;97896.50;;;29.18;36.96
28267;BME280;15525;45.568;5.448;2022-09-12T09:29:43;97892.53;;;29.44;35.66
28267;BME280;15525;45.568;5.448;2022-09-12T09:32:17;97900.41;;;29.52;35.88
28267;BME280;15525;45.568;5.448;2022-09-12T09:34:42;97892.91;;;29.81;35.64
28267;BME280;15525;45.568;5.448;2022-09-12T09:40:07;97905.91;;;29.87;34.38
28267;BME280;15525;45.568;5.448;2022-09-12T09:43:13;97899.94;;;30.10;33.95
28267;BME280;15525;45.568;5.448;2022-09-12T09:45:42;97898.34;;;30.05;35.25
28267;BME280;15525;45.568;5.448;2022-09-12T09:48:36;97909.78;;;30.07;34.20
28267;BME280;15525;45.568;5.448;2022-09-12T09:51:04;97879.78;;;30.16;34.69
28267;BME280;15525;45.568;5.448;2022-09-12T09:56:38;97897.34;;;30.54;33.88
28267;BME280;15525;45.568;5.448;2022-09-12T09:59:28;97885.06;;;30.72;32.95
28267;BME280;15525;45.568;5.448;2022-09-12T10:01:58;97887.81;;;30.72;32.58
28267;BME280;15525;45.568;5.448;2022-09-12T10:04:34;97888.72;;;31.10;31.85
28267;BME280;15525;45.568;5.448;2022-09-12T10:07:02;97885.53;;;31.11;33.15
28267;BME280;15525;45.568;5.448;2022-09-12T10:09:33;97884.19;;;31.33;33.04
28267;BME280;15525;45.568;5.448;2022-09-12T10:12:45;97878.34;;;31.24;32.95
28267;BME280;15525;45.568;5.448;2022-09-12T10:14:56;97875.84;;;31.40;31.15
28267;BME280;15525;45.568;5.448;2022-09-12T10:17:29;97883.19;;;31.57;32.32
28267;BME280;15525;45.568;5.448;2022-09-12T10:19:56;97879.03;;;31.79;31.89
28267;BME280;15525;45.568;5.448;2022-09-12T10:22:25;97878.28;;;32.09;31.78
28267;BME280;15525;45.568;5.448;2022-09-12T10:24:53;97876.47;;;32.29;31.16
28267;BME280;15525;45.568;5.448;2022-09-12T10:27:21;97874.34;;;32.40;30.83
28267;BME280;15525;45.568;5.448;2022-09-12T10:29:59;97869.22;;;32.38;30.84
28267;BME280;15525;45.568;5.448;2022-09-12T10:32:33;97863.84;;;32.24;30.05
28267;BME280;15525;45.568;5.448;2022-09-12T10:35:06;97858.94;;;32.05;30.86
28267;BME280;15525;45.568;5.448;2022-09-12T10:37:38;97857.63;;;32.73;30.02
28267;BME280;15525;45.568;5.448;2022-09-12T10:40:21;97839.09;;;32.93;29.33
28267;BME280;15525;45.568;5.448;2022-09-12T10:42:56;97853.81;;;32.64;29.42
28267;BME280;15525;45.568;5.448;2022-09-12T10:45:34;97856.81;;;33.03;29.59
28267;BME280;15525;45.568;5.448;2022-09-12T10:50:48;97852.28;;;33.35;29.32
28267;BME280;15525;45.568;5.448;2022-09-12T10:53:20;97848.13;;;33.47;29.90
28267;BME280;15525;45.568;5.448;2022-09-12T10:58:33;97848.00;;;33.96;28.50
28267;BME280;15525;45.568;5.448;2022-09-12T11:01:13;97850.19;;;33.85;28.81
28267;BME280;15525;45.568;5.448;2022-09-12T11:06:47;97853.75;;;34.44;27.08
28267;BME280;15525;45.568;5.448;2022-09-12T11:17:35;97838.69;;;35.25;27.66
28267;BME280;15525;45.568;5.448;2022-09-12T11:20:16;97848.59;;;35.59;27.19
28267;BME280;15525;45.568;5.448;2022-09-12T11:31:43;97846.03;;;35.36;25.56
28267;BME280;15525;45.568;5.448;2022-09-12T11:34:19;97851.84;;;34.93;25.50
28267;BME280;15525;45.568;5.448;2022-09-12T11:39:37;97848.75;;;34.16;26.00
28267;BME280;15525;45.568;5.448;2022-09-12T11:42:05;97833.41;;;34.47;25.91
28267;BME280;15525;45.568;5.448;2022-09-12T11:44:50;97838.06;;;34.34;25.90
28267;BME280;15525;45.568;5.448;2022-09-12T11:47:18;97839.25;;;34.88;25.81
28267;BME280;15525;45.568;5.448;2022-09-12T11:49:49;97846.38;;;34.89;25.54
28267;BME280;15525;45.568;5.448;2022-09-12T11:52:16;97839.56;;;34.90;25.43
28267;BME280;15525;45.568;5.448;2022-09-12T12:00:18;97831.41;;;35.76;24.36
28267;BME280;15525;45.568;5.448;2022-09-12T12:06:17;97829.75;;;36.20;24.50
28267;BME280;15525;45.568;5.448;2022-09-12T12:08:47;97823.56;;;36.00;25.10
28267;BME280;15525;45.568;5.448;2022-09-12T12:11:25;97828.16;;;36.35;24.39
28267;BME280;15525;45.568;5.448;2022-09-12T12:13:59;97818.88;;;36.38;24.38
28267;BME280;15525;45.568;5.448;2022-09-12T12:16:29;97810.16;;;36.61;24.53
28267;BME280;15525;45.568;5.448;2022-09-12T12:18:58;97793.56;;;36.45;24.14
28267;BME280;15525;45.568;5.448;2022-09-12T12:26:58;97788.91;;;36.67;23.71
28267;BME280;15525;45.568;5.448;2022-09-12T12:34:33;97781.91;;;35.52;24.39
28267;BME280;15525;45.568;5.448;2022-09-12T12:42:09;97783.16;;;36.33;23.70
28267;BME280;15525;45.568;5.448;2022-09-12T12:44:52;97778.59;;;36.64;23.36
28267;BME280;15525;45.568;5.448;2022-09-12T12:47:23;97779.00;;;37.00;23.27
28267;BME280;15525;45.568;5.448;2022-09-12T12:49:53;97769.91;;;37.55;22.03
28267;BME280;15525;45.568;5.448;2022-09-12T12:52:21;97768.78;;;37.31;23.02
28267;BME280;15525;45.568;5.448;2022-09-12T12:54:50;97768.00;;;37.86;22.79
28267;BME280;15525;45.568;5.448;2022-09-12T12:57:22;97769.63;;;37.40;22.44
28267;BME280;15525;45.568;5.448;2022-09-12T12:59:56;97773.13;;;37.66;22.18
28267;BME280;15525;45.568;5.448;2022-09-12T13:02:37;97766.31;;;37.88;22.42
28267;BME280;15525;45.568;5.448;2022-09-12T13:05:16;97759.50;;;38.20;21.34
28267;BME280;15525;45.568;5.448;2022-09-12T13:07:43;97762.00;;;38.18;22.43
28267;BME280;15525;45.568;5.448;2022-09-12T13:10:23;97759.25;;;38.27;21.03
28267;BME280;15525;45.568;5.448;2022-09-12T13:12:50;97750.44;;;37.30;22.48
28267;BME280;15525;45.568;5.448;2022-09-12T13:18:16;97745.31;;;36.82;22.39
28267;BME280;15525;45.568;5.448;2022-09-12T13:23:31;97730.38;;;37.22;22.47
28267;BME280;15525;45.568;5.448;2022-09-12T13:26:00;97736.63;;;37.91;22.59
28267;BME280;15525;45.568;5.448;2022-09-12T13:28:28;97723.13;;;37.46;21.86
28267;BME280;15525;45.568;5.448;2022-09-12T13:31:00;97728.72;;;38.20;22.16
28267;BME280;15525;45.568;5.448;2022-09-12T13:36:19;97729.38;;;38.63;21.34
28267;BME280;15525;45.568;5.448;2022-09-12T13:44:11;97721.78;;;38.64;21.23
28267;BME280;15525;45.568;5.448;2022-09-12T13:46:39;97720.09;;;38.75;20.96
28267;BME280;15525;45.568;5.448;2022-09-12T13:49:15;97722.91;;;38.36;20.85
28267;BME280;15525;45.568;5.448;2022-09-12T13:51:42;97722.38;;;38.59;21.02
28267;BME280;15525;45.568;5.448;2022-09-12T13:54:15;97709.56;;;38.49;21.20
28267;BME280;15525;45.568;5.448;2022-09-12T13:56:46;97710.44;;;38.85;21.16
28267;BME280;15525;45.568;5.448;2022-09-12T13:59:12;97697.50;;;38.70;20.66
28267;BME280;15525;45.568;5.448;2022-09-12T14:01:40;97704.72;;;38.40;20.60
28267;BME280;15525;45.568;5.448;2022-09-12T14:04:17;97695.72;;;38.45;20.97
28267;BME280;15525;45.568;5.448;2022-09-12T14:07:09;97689.97;;;38.97;20.12
28267;BME280;15525;45.568;5.448;2022-09-12T14:09:41;97680.72;;;38.88;21.00
28267;BME280;15525;45.568;5.448;2022-09-12T14:12:28;97694.63;;;39.45;20.75
28267;BME280;15525;45.568;5.448;2022-09-12T14:14:55;97683.06;;;39.79;20.60
28267;BME280;15525;45.568;5.448;2022-09-12T14:19:57;97678.56;;;40.14;19.76
28267;BME280;15525;45.568;5.448;2022-09-12T14:22:28;97674.38;;;39.05;19.79
28267;BME280;15525;45.568;5.448;2022-09-12T14:24:55;97684.56;;;38.54;20.04
28267;BME280;15525;45.568;5.448;2022-09-12T14:27:45;97678.75;;;38.88;19.87
28267;BME280;15525;45.568;5.448;2022-09-12T14:35:42;97668.56;;;38.64;19.28
28267;BME280;15525;45.568;5.448;2022-09-12T14:40:45;97666.13;;;39.11;19.01
28267;BME280;15525;45.568;5.448;2022-09-12T14:43:32;97678.81;;;38.58;19.07
28267;BME280;15525;45.568;5.448;2022-09-12T14:46:19;97681.25;;;37.77;19.82
28267;BME280;15525;45.568;5.448;2022-09-12T14:48:50;97673.03;;;37.82;19.90
28267;BME280;15525;45.568;5.448;2022-09-12T14:51:21;97670.94;;;38.35;19.46
28267;BME280;15525;45.568;5.448;2022-09-12T14:53:49;97665.78;;;38.82;19.71
28267;BME280;15525;45.568;5.448;2022-09-12T14:56:15;97657.22;;;38.85;19.92
28267;BME280;15525;45.568;5.448;2022-09-12T14:58:41;97661.47;;;39.08;19.42
28267;BME280;15525;45.568;5.448;2022-09-12T15:06:29;97653.06;;;39.35;18.93
28267;BME280;15525;45.568;5.448;2022-09-12T15:09:02;97657.72;;;39.20;19.24
28267;BME280;15525;45.568;5.448;2022-09-12T15:11:30;97649.28;;;38.84;19.17
28267;BME280;15525;45.568;5.448;2022-09-12T15:13:57;97649.31;;;38.93;19.39
28267;BME280;15525;45.568;5.448;2022-09-12T15:16:23;97649.50;;;39.07;19.11
28267;BME280;15525;45.568;5.448;2022-09-12T15:18:48;97642.34;;;38.88;19.32
28267;BME280;15525;45.568;5.448;2022-09-12T15:21:18;97644.97;;;39.10;19.15
28267;BME280;15525;45.568;5.448;2022-09-12T15:23:51;97637.97;;;38.96;19.41
28267;BME280;15525;45.568;5.448;2022-09-12T15:26:24;97628.75;;;38.60;19.45
28267;BME280;15525;45.568;5.448;2022-09-12T15:28:52;97635.50;;;38.98;19.44
28267;BME280;15525;45.568;5.448;2022-09-12T15:33:50;97613.34;;;39.27;19.46
28267;BME280;15525;45.568;5.448;2022-09-12T15:36:18;97622.84;;;39.12;19.28
28267;BME280;15525;45.568;5.448;2022-09-12T15:38:45;97626.47;;;38.94;19.61
28267;BME280;15525;45.568;5.448;2022-09-12T15:41:35;97625.66;;;39.39;19.37
28267;BME280;15525;45.568;5.448;2022-09-12T15:44:06;97620.94;;;39.54;19.34
28267;BME280;15525;45.568;5.448;2022-09-12T15:46:35;97622.84;;;39.39;19.38
28267;BME280;15525;45.568;5.448;2022-09-12T15:49:00;97621.94;;;39.06;19.63
28267;BME280;15525;45.568;5.448;2022-09-12T15:51:25;97613.53;;;38.97;19.79